Siqueira Campos, Brazil
Current Conditions -  °F | °C
As of 3:00 PM on Saturday 25 Oct 2014 (Local Time) from SBLO Reporting Station
Broken Clouds Broken Clouds  
Wind Chill: 81°   Ceiling: 2000
Heat Index: 83°   Visibility: 6mi
Dew Point: 66°   Wind: 9mph
Humidity: 61%   Direction: 40°NE
Pressure: 29.97"   Gusts: NA
Location:  23.69°S, 49.83°W
Report Text: SBLO 251700Z 04008KT 9999 BKN020 27/19 Q1015
Loading
Personal Weather Stations






























Interactive Weather Map
Tropical Storm Tracking
New forecast layout! Learn more

10-Day Weather Forecast

Advertisements
Track Severe Weather on mobile